Time;durP1;ratioP1;P1;durP2;ratioP2;P2;SDS_P1;SDS_P2;PMS_P1;PMS_P2;Temp;Humidity;BMP_temperature;BMP_pressure;BME280_temperature;BME280_humidity;BME280_pressure;Samples;Min_cycle;Max_cycle;Signal;HPM_P1;HPM_P2
2020/12/08 00:01:18;;;;;;;0.20;0.20;;;5.40;95.60;;;;;;4069095;29;20048;-87
2020/12/08 00:03:19;;;;;;;0.20;0.20;;;5.40;95.50;;;;;;4069802;29;20142;-86
2020/12/08 00:05:21;;;;;;;0.30;0.30;;;5.40;95.70;;;;;;4098139;28;20065;-86
2020/12/08 00:07:22;;;;;;;0.20;0.20;;;5.40;95.70;;;;;;4097000;29;20064;-87
2020/12/08 00:09:24;;;;;;;0.17;0.17;;;5.40;95.70;;;;;;4120714;28;20078;-87
2020/12/08 00:11:25;;;;;;;0.25;0.20;;;5.40;95.80;;;;;;4104042;29;20032;-86
2020/12/08 00:13:26;;;;;;;0.10;0.10;;;5.40;95.90;;;;;;4086334;29;20064;-87
2020/12/08 00:15:29;;;;;;;0.35;0.35;;;5.40;95.80;;;;;;4069835;29;20056;-86
2020/12/08 00:17:31;;;;;;;0.10;0.10;;;5.30;96.00;;;;;;4068737;29;20056;-86
2020/12/08 00:19:32;;;;;;;0.20;0.20;;;5.30;96.00;;;;;;4069004;29;20060;-86
2020/12/08 00:21:34;;;;;;;0.10;0.10;;;5.30;96.20;;;;;;4101149;28;20069;-85
2020/12/08 00:23:35;;;;;;;0.20;0.20;;;5.30;96.30;;;;;;4084840;29;20091;-86
2020/12/08 00:25:36;;;;;;;0.10;0.10;;;5.30;96.30;;;;;;4084791;29;20063;-86
2020/12/08 00:27:38;;;;;;;0.20;0.17;;;5.40;96.20;;;;;;4084838;29;20641;-86
2020/12/08 00:29:39;;;;;;;0.22;0.22;;;5.40;96.20;;;;;;4084056;29;20075;-86
2020/12/08 00:31:41;;;;;;;0.10;0.10;;;5.40;96.10;;;;;;4068439;29;20551;-85
2020/12/08 00:33:42;;;;;;;0.20;0.20;;;5.50;96.10;;;;;;4069073;29;20095;-86
2020/12/08 00:35:43;;;;;;;0.55;0.55;;;5.50;96.10;;;;;;4068044;29;20058;-86
2020/12/08 00:37:45;;;;;;;6.32;0.40;;;5.50;96.00;;;;;;4095484;28;20051;-86
2020/12/08 00:39:47;;;;;;;0.20;0.20;;;5.50;96.00;;;;;;4100296;28;20055;-86
2020/12/08 00:41:49;;;;;;;0.43;0.30;;;5.60;96.00;;;;;;4083828;29;20570;-86
2020/12/08 00:43:50;;;;;;;0.75;0.75;;;5.50;96.00;;;;;;4099915;28;20061;-86
2020/12/08 00:45:51;;;;;;;0.25;0.20;;;5.50;96.10;;;;;;4068482;29;20532;-86
2020/12/08 00:47:53;;;;;;;0.43;0.43;;;5.50;96.10;;;;;;4085883;29;20510;-86
2020/12/08 00:49:54;;;;;;;1.65;0.52;;;5.50;96.20;;;;;;4068968;29;20052;-86
2020/12/08 00:51:59;;;;;;;0.30;0.30;;;5.50;96.20;;;;;;4084062;29;20085;-86
2020/12/08 00:54:01;;;;;;;0.45;0.45;;;5.50;96.30;;;;;;4084692;29;20160;-86
2020/12/08 00:56:11;;;;;;;0.25;0.20;;;5.50;96.40;;;;;;4068353;29;20432;-86
2020/12/08 00:58:12;;;;;;;0.20;0.20;;;5.40;96.50;;;;;;4083844;29;20060;-86
2020/12/08 01:00:13;;;;;;;0.20;0.20;;;5.40;96.60;;;;;;4084496;29;20479;-86
2020/12/08 01:02:17;;;;;;;0.10;0.10;;;5.40;96.60;;;;;;4083888;29;20055;-87
2020/12/08 01:04:19;;;;;;;0.10;0.10;;;5.30;96.80;;;;;;4084393;29;20059;-85
2020/12/08 01:06:20;;;;;;;0.30;0.30;;;5.30;96.80;;;;;;4068834;29;20056;-86
2020/12/08 01:08:21;;;;;;;0.50;0.50;;;5.30;96.80;;;;;;4083153;29;20459;-85
2020/12/08 01:10:23;;;;;;;0.45;0.15;;;5.40;96.70;;;;;;4082885;29;20048;-86
2020/12/08 01:12:24;;;;;;;0.20;0.20;;;5.40;96.90;;;;;;4068701;29;20060;-85
2020/12/08 01:14:25;;;;;;;0.20;0.20;;;5.40;96.90;;;;;;4083692;29;20500;-87
2020/12/08 01:16:26;;;;;;;0.25;0.25;;;5.40;96.80;;;;;;4067927;29;20059;-86
2020/12/08 01:18:28;;;;;;;0.15;0.15;;;5.40;96.80;;;;;;4099426;28;20051;-85
2020/12/08 01:20:29;;;;;;;0.28;0.28;;;5.40;96.80;;;;;;4066350;29;20056;-86
2020/12/08 01:22:31;;;;;;;0.10;0.10;;;5.40;96.90;;;;;;4067315;29;20048;-85
2020/12/08 01:24:32;;;;;;;0.10;0.10;;;5.40;96.90;;;;;;4084881;29;20059;-86
2020/12/08 01:26:34;;;;;;;0.20;0.20;;;5.40;96.90;;;;;;4068227;29;20070;-86
2020/12/08 01:28:35;;;;;;;0.10;0.10;;;5.40;96.80;;;;;;4099531;28;20053;-86
2020/12/08 01:30:36;;;;;;;0.75;0.43;;;5.40;96.80;;;;;;4083766;29;20602;-85
2020/12/08 01:32:37;;;;;;;0.22;0.22;;;5.40;96.90;;;;;;4067729;29;20428;-86
2020/12/08 01:34:40;;;;;;;0.17;0.17;;;5.40;96.90;;;;;;4067940;29;20063;-85
2020/12/08 01:36:41;;;;;;;0.20;0.20;;;5.50;97.10;;;;;;4068162;29;20134;-86
2020/12/08 01:38:43;;;;;;;0.20;0.20;;;5.40;96.80;;;;;;4083893;29;20052;-85
2020/12/08 01:40:52;;;;;;;0.20;0.20;;;5.40;96.90;;;;;;4067663;29;20059;-86
2020/12/08 01:42:53;;;;;;;0.20;0.20;;;5.50;97.00;;;;;;4068194;29;20052;-86
2020/12/08 01:44:55;;;;;;;0.22;0.22;;;5.40;96.90;;;;;;4083714;29;20056;-84
2020/12/08 01:46:56;;;;;;;0.40;0.40;;;5.50;96.80;;;;;;4083220;29;20059;-85
2020/12/08 01:48:59;;;;;;;1.08;0.28;;;5.50;96.80;;;;;;4067810;29;20071;-86
2020/12/08 01:51:00;;;;;;;0.43;0.10;;;5.50;96.90;;;;;;4083690;29;20059;-86
2020/12/08 01:53:02;;;;;;;0.43;0.35;;;5.50;96.90;;;;;;4098531;28;20141;-86
2020/12/08 01:55:03;;;;;;;0.20;0.20;;;5.40;97.00;;;;;;4067659;29;20052;-86
2020/12/08 01:57:05;;;;;;;0.15;0.15;;;5.40;97.00;;;;;;4067700;29;20059;-86
2020/12/08 01:59:06;;;;;;;3.65;1.65;;;5.40;97.10;;;;;;4098615;28;20043;-86
2020/12/08 02:01:10;;;;;;;0.20;0.20;;;5.40;97.00;;;;;;4082700;29;20223;-86
2020/12/08 02:03:11;;;;;;;0.20;0.20;;;5.40;97.00;;;;;;4068278;29;20062;-86
2020/12/08 02:05:12;;;;;;;0.15;0.15;;;5.40;97.00;;;;;;4083094;29;20055;-85
2020/12/08 02:07:13;;;;;;;1.20;0.43;;;5.40;97.10;;;;;;4083079;29;20526;-86
2020/12/08 02:09:15;;;;;;;0.20;0.20;;;5.40;97.20;;;;;;4083367;29;20059;-87
2020/12/08 02:11:16;;;;;;;0.88;0.43;;;5.50;97.10;;;;;;4098058;28;20055;-86
2020/12/08 02:13:17;;;;;;;0.10;0.10;;;5.40;97.10;;;;;;4067225;29;20595;-86
2020/12/08 02:15:18;;;;;;;0.30;0.30;;;5.40;97.20;;;;;;4099235;28;20542;-87
2020/12/08 02:17:21;;;;;;;0.20;0.20;;;5.40;97.20;;;;;;4082994;29;20130;-86
2020/12/08 02:19:22;;;;;;;0.30;0.20;;;5.50;97.20;;;;;;4067694;29;20524;-86
2020/12/08 02:21:32;;;;;;;0.22;0.22;;;5.40;97.20;;;;;;4082928;29;20056;-86
2020/12/08 02:23:33;;;;;;;0.35;0.35;;;5.40;97.30;;;;;;4082936;29;20051;-86
2020/12/08 02:25:35;;;;;;;0.30;0.30;;;5.40;97.30;;;;;;4067464;29;20059;-86
2020/12/08 02:27:37;;;;;;;0.10;0.10;;;5.50;97.20;;;;;;4082712;29;20061;-86
2020/12/08 02:29:40;;;;;;;0.73;0.73;;;5.50;97.20;;;;;;4098277;28;20109;-86
2020/12/08 02:31:41;;;;;;;0.10;0.10;;;5.50;97.20;;;;;;4082600;29;20057;-86
2020/12/08 02:33:42;;;;;;;0.40;0.40;;;5.50;97.20;;;;;;4098987;28;20059;-87
2020/12/08 02:35:44;;;;;;;0.35;0.30;;;5.50;97.20;;;;;;4066860;29;20063;-86
2020/12/08 02:37:45;;;;;;;0.10;0.10;;;5.50;97.20;;;;;;4067061;29;20067;-86
2020/12/08 02:39:47;;;;;;;0.13;0.13;;;5.50;97.20;;;;;;4098903;28;20083;-86
2020/12/08 02:41:48;;;;;;;0.30;0.30;;;5.50;97.20;;;;;;4082603;29;20063;-86
2020/12/08 02:43:51;;;;;;;0.22;0.20;;;5.50;97.10;;;;;;4098390;29;20055;-86
2020/12/08 02:45:55;;;;;;;0.60;0.60;;;5.60;97.00;;;;;;4067642;29;20586;-87
2020/12/08 02:47:56;;;;;;;0.20;0.20;;;5.60;97.10;;;;;;4081672;29;20058;-86
2020/12/08 02:49:57;;;;;;;0.20;0.20;;;5.60;97.00;;;;;;4098461;29;20418;-87
2020/12/08 02:51:59;;;;;;;0.13;0.13;;;5.70;96.90;;;;;;4066857;29;20064;-87
2020/12/08 02:54:00;;;;;;;0.30;0.30;;;5.70;96.70;;;;;;4067652;29;20075;-86
2020/12/08 02:56:01;;;;;;;0.30;0.30;;;5.80;96.70;;;;;;4066783;29;20048;-86
2020/12/08 02:58:03;;;;;;;0.10;0.10;;;5.80;96.70;;;;;;4098439;28;20051;-86
2020/12/08 03:00:04;;;;;;;0.20;0.20;;;5.80;96.70;;;;;;4083196;29;20060;-86
2020/12/08 03:02:06;;;;;;;0.15;0.15;;;5.80;96.70;;;;;;4066177;29;20052;-86
2020/12/08 03:04:07;;;;;;;0.35;0.35;;;5.80;96.80;;;;;;4082851;29;20051;-86
2020/12/08 03:06:08;;;;;;;0.38;0.38;;;5.80;96.70;;;;;;4082963;29;20071;-86
2020/12/08 03:08:10;;;;;;;0.20;0.20;;;5.80;96.70;;;;;;4098022;28;20059;-86
2020/12/08 03:10:13;;;;;;;0.15;0.15;;;5.80;96.80;;;;;;4066767;29;20052;-86
2020/12/08 03:12:14;;;;;;;0.20;0.20;;;5.90;96.70;;;;;;4082532;29;20056;-86
2020/12/08 03:14:15;;;;;;;0.20;0.20;;;5.90;96.70;;;;;;4082510;29;20051;-87
2020/12/08 03:16:17;;;;;;;0.20;0.20;;;5.80;96.80;;;;;;4082954;29;20058;-86
2020/12/08 03:18:18;;;;;;;0.20;0.20;;;5.90;96.70;;;;;;4083022;29;20059;-86
2020/12/08 03:20:20;;;;;;;0.55;0.55;;;5.90;96.70;;;;;;4066663;29;20428;-86
2020/12/08 03:22:21;;;;;;;0.20;0.20;;;5.90;96.80;;;;;;4097969;28;20551;-86
2020/12/08 03:24:23;;;;;;;0.60;0.47;;;5.90;96.80;;;;;;4083037;29;20509;-86
2020/12/08 03:26:24;;;;;;;0.13;0.13;;;5.90;96.70;;;;;;4082266;29;20052;-86
2020/12/08 03:28:25;;;;;;;0.10;0.10;;;6.00;96.80;;;;;;4098424;28;20054;-86
2020/12/08 03:30:26;;;;;;;0.25;0.25;;;6.00;96.70;;;;;;4083085;29;20508;-87
2020/12/08 03:32:28;;;;;;;0.22;0.20;;;6.00;96.70;;;;;;4066804;29;20052;-87
2020/12/08 03:34:29;;;;;;;0.10;0.10;;;6.00;96.70;;;;;;4085383;29;20134;-86
2020/12/08 03:36:30;;;;;;;0.30;0.30;;;6.00;96.70;;;;;;4069950;29;20063;-86
2020/12/08 03:38:33;;;;;;;0.20;0.20;;;6.00;96.70;;;;;;4069668;28;20072;-86
2020/12/08 03:40:34;;;;;;;0.20;0.20;;;6.00;96.60;;;;;;4100714;29;20063;-85
2020/12/08 03:42:35;;;;;;;0.10;0.10;;;6.00;96.60;;;;;;4070030;29;20062;-86
2020/12/08 03:44:37;;;;;;;0.70;0.50;;;6.00;96.70;;;;;;4068419;29;20081;-86
2020/12/08 03:46:39;;;;;;;0.15;0.15;;;6.00;96.80;;;;;;4100795;29;20408;-86
2020/12/08 03:48:40;;;;;;;0.20;0.20;;;5.90;96.80;;;;;;4085767;29;20059;-86
2020/12/08 03:50:43;;;;;;;0.20;0.20;;;6.00;96.70;;;;;;4100793;29;20055;-86
2020/12/08 03:52:44;;;;;;;0.20;0.20;;;6.00;96.70;;;;;;4100594;28;20137;-86
2020/12/08 03:54:45;;;;;;;0.20;0.20;;;6.00;96.60;;;;;;4069073;29;20066;-87
2020/12/08 03:56:47;;;;;;;0.10;0.10;;;6.00;96.60;;;;;;4069479;29;20120;-86
2020/12/08 03:58:49;;;;;;;0.20;0.20;;;6.10;96.70;;;;;;4084523;29;20498;-86
2020/12/08 04:00:50;;;;;;;0.10;0.10;;;6.00;96.80;;;;;;4069579;29;20410;-86
2020/12/08 04:02:52;;;;;;;0.10;0.10;;;6.00;96.90;;;;;;4069536;29;20062;-86
2020/12/08 04:04:53;;;;;;;0.10;0.10;;;6.00;96.90;;;;;;4084956;29;20060;-86
2020/12/08 04:06:54;;;;;;;0.73;0.40;;;6.10;96.70;;;;;;4085364;29;20138;-86
2020/12/08 04:08:55;;;;;;;0.30;0.30;;;6.00;96.70;;;;;;4069049;29;20484;-86
2020/12/08 04:10:57;;;;;;;0.98;0.50;;;6.10;96.70;;;;;;4100619;28;20057;-86
2020/12/08 04:12:58;;;;;;;0.10;0.10;;;6.00;96.60;;;;;;4069360;29;20559;-86
2020/12/08 04:15:00;;;;;;;0.10;0.10;;;6.00;96.60;;;;;;4085651;29;20076;-88
2020/12/08 04:17:01;;;;;;;0.10;0.10;;;6.10;96.70;;;;;;4084666;29;20146;-87
2020/12/08 04:19:03;;;;;;;0.20;0.20;;;6.00;96.60;;;;;;4069511;29;20060;-88
2020/12/08 04:21:04;;;;;;;0.20;0.20;;;6.10;96.40;;;;;;4101218;28;20063;-88
2020/12/08 04:23:06;;;;;;;0.10;0.10;;;6.10;96.30;;;;;;4084711;29;20047;-88
2020/12/08 04:25:07;;;;;;;0.20;0.20;;;6.10;96.30;;;;;;4087172;29;20400;-88
2020/12/08 04:27:08;;;;;;;0.20;0.20;;;6.10;96.30;;;;;;4089302;29;20547;-87
2020/12/08 04:29:10;;;;;;;0.10;0.10;;;6.10;96.00;;;;;;4089166;29;20055;-88
2020/12/08 04:31:15;;;;;;;0.10;0.10;;;6.10;96.10;;;;;;4070681;29;20235;-87
2020/12/08 04:33:16;;;;;;;0.30;0.30;;;6.10;95.90;;;;;;4078038;29;20055;-88
2020/12/08 04:35:17;;;;;;;0.10;0.10;;;6.10;96.00;;;;;;4081123;29;20048;-86
2020/12/08 04:37:18;;;;;;;0.20;0.20;;;6.20;96.00;;;;;;4068891;29;20138;-87
2020/12/08 04:39:20;;;;;;;0.80;0.40;;;6.10;95.90;;;;;;4101100;28;20134;-86
2020/12/08 04:41:22;;;;;;;0.20;0.20;;;6.20;95.70;;;;;;4068316;29;20054;-88
2020/12/08 04:43:24;;;;;;;0.52;0.52;;;6.10;95.80;;;;;;4100085;28;20067;-88
2020/12/08 04:45:25;;;;;;;0.63;0.30;;;6.20;95.60;;;;;;4068616;29;20059;-87
2020/12/08 04:47:26;;;;;;;0.45;0.45;;;6.10;95.60;;;;;;4082208;29;20075;-88
2020/12/08 04:49:27;;;;;;;0.63;0.43;;;6.20;95.60;;;;;;4068815;29;20079;-87
2020/12/08 04:51:30;;;;;;;0.40;0.20;;;6.20;95.40;;;;;;4100546;29;20048;-85
2020/12/08 04:53:33;;;;;;;0.30;0.30;;;6.20;95.30;;;;;;4084105;29;20055;-85
2020/12/08 04:55:34;;;;;;;0.10;0.10;;;6.20;95.20;;;;;;4084369;29;20056;-85
2020/12/08 04:57:38;;;;;;;0.20;0.20;;;6.30;95.20;;;;;;4084360;29;20066;-85
2020/12/08 04:59:39;;;;;;;0.20;0.20;;;6.30;94.90;;;;;;4068751;29;20052;-85
2020/12/08 05:01:41;;;;;;;0.22;0.22;;;6.30;94.90;;;;;;4084197;29;20059;-87
2020/12/08 05:03:42;;;;;;;0.10;0.10;;;6.30;95.00;;;;;;4100499;28;20061;-87
2020/12/08 05:05:44;;;;;;;0.43;0.43;;;6.30;94.80;;;;;;4068282;29;20062;-87
2020/12/08 05:07:45;;;;;;;0.20;0.20;;;6.30;95.00;;;;;;4067742;29;20056;-87
2020/12/08 05:09:48;;;;;;;0.10;0.10;;;6.30;94.90;;;;;;4068595;29;20531;-87
2020/12/08 05:11:55;;;;;;;0.10;0.10;;;6.30;95.00;;;;;;4067229;29;20066;-87
2020/12/08 05:13:58;;;;;;;0.20;0.20;;;6.30;94.80;;;;;;4099995;29;20051;-87
2020/12/08 05:16:04;;;;;;;0.25;0.25;;;6.30;94.90;;;;;;4067988;29;20056;-87
2020/12/08 05:18:09;;;;;;;0.30;0.30;;;6.30;94.70;;;;;;4084205;29;20062;-87
2020/12/08 05:20:11;;;;;;;;;;;6.30;94.80;;;;;;4068323;29;20056;-87
2020/12/08 05:22:12;;;;;;;0.28;0.28;;;6.30;94.60;;;;;;4083651;29;19969;-87
2020/12/08 05:24:26;;;;;;;0.20;0.20;;;6.30;94.80;;;;;;4068350;29;20071;-88
2020/12/08 05:26:28;;;;;;;0.20;0.20;;;6.30;94.70;;;;;;4083368;29;20060;-89
2020/12/08 05:28:29;;;;;;;0.20;0.20;;;6.30;94.80;;;;;;4084647;29;20424;-88
2020/12/08 05:30:31;;;;;;;0.30;0.30;;;6.30;94.60;;;;;;4084157;29;20059;-88
2020/12/08 05:32:42;;;;;;;0.15;0.15;;;6.30;94.60;;;;;;4082838;29;20079;-88
2020/12/08 05:34:43;;;;;;;0.15;0.15;;;6.40;94.50;;;;;;4066661;29;20501;-87
2020/12/08 05:36:47;;;;;;;0.10;0.10;;;6.40;94.30;;;;;;4055082;29;20063;-84
2020/12/08 05:38:48;;;;;;;0.20;0.20;;;6.40;94.40;;;;;;4079397;29;20056;-86
2020/12/08 05:40:51;;;;;;;0.28;0.28;;;6.40;94.40;;;;;;4082847;29;20065;-85
2020/12/08 05:42:54;;;;;;;0.68;0.68;;;6.40;94.40;;;;;;4067356;29;20058;-85
2020/12/08 05:44:56;;;;;;;0.20;0.20;;;6.30;94.30;;;;;;4067554;29;20068;-86
2020/12/08 05:46:57;;;;;;;0.60;0.60;;;6.40;94.40;;;;;;4067789;29;20131;-85
2020/12/08 05:48:58;;;;;;;0.35;0.35;;;6.40;94.40;;;;;;4069135;29;20056;-85
2020/12/08 05:51:03;;;;;;;0.20;0.20;;;6.40;94.30;;;;;;4083693;29;20123;-85
2020/12/08 05:53:04;;;;;;;0.20;0.20;;;6.40;94.40;;;;;;4082616;29;20059;-84
2020/12/08 05:55:07;;;;;;;0.20;0.20;;;6.40;94.40;;;;;;4082511;29;20305;-84
2020/12/08 05:57:17;;;;;;;0.20;0.20;;;6.40;94.40;;;;;;4067655;29;20060;-84
2020/12/08 05:59:28;;;;;;;0.38;0.20;;;6.40;94.40;;;;;;4079673;29;20126;-84
2020/12/08 06:01:30;;;;;;;0.30;0.30;;;6.40;94.50;;;;;;4081440;29;20150;-84
2020/12/08 06:03:39;;;;;;;0.10;0.10;;;6.40;94.50;;;;;;4084195;29;20083;-84
2020/12/08 06:05:41;;;;;;;0.20;0.20;;;6.40;94.40;;;;;;4082583;29;20139;-84
2020/12/08 06:07:42;;;;;;;0.25;0.20;;;6.40;94.40;;;;;;4097984;28;20078;-87
2020/12/08 06:09:44;;;;;;;0.40;0.20;;;6.40;94.60;;;;;;4067536;29;20052;-87
2020/12/08 06:11:45;;;;;;;1.08;0.68;;;6.40;94.60;;;;;;4067159;29;20060;-87
2020/12/08 06:13:48;;;;;;;0.95;0.95;;;6.40;94.60;;;;;;4083151;29;20051;-87
2020/12/08 06:15:49;;;;;;;0.10;0.10;;;6.40;94.60;;;;;;4082977;29;20187;-86
2020/12/08 06:17:50;;;;;;;0.10;0.10;;;6.40;94.60;;;;;;4067245;29;20070;-87
2020/12/08 06:19:52;;;;;;;0.20;0.20;;;6.40;94.50;;;;;;4075741;29;20060;-87
2020/12/08 06:21:53;;;;;;;0.40;0.35;;;6.40;94.60;;;;;;4067251;29;20142;-87
2020/12/08 06:23:59;;;;;;;0.52;0.45;;;6.40;94.70;;;;;;4071510;29;20055;-86
2020/12/08 06:26:00;;;;;;;0.20;0.20;;;6.40;94.60;;;;;;4067432;29;20052;-86
2020/12/08 06:28:03;;;;;;;0.30;0.30;;;6.30;94.50;;;;;;4098672;28;20067;-88
2020/12/08 06:30:04;;;;;;;0.25;0.25;;;6.40;94.60;;;;;;4067252;29;20131;-86
2020/12/08 06:32:06;;;;;;;0.20;0.20;;;6.40;94.50;;;;;;4082222;29;20048;-86
2020/12/08 06:34:07;;;;;;;1.20;1.10;;;6.40;94.60;;;;;;4082949;29;20139;-87
2020/12/08 06:36:08;;;;;;;0.40;0.40;;;6.40;94.50;;;;;;4071184;29;20070;-86
2020/12/08 06:38:09;;;;;;;0.47;0.47;;;6.40;94.50;;;;;;4067150;29;20071;-89
2020/12/08 06:40:18;;;;;;;0.20;0.20;;;6.30;94.60;;;;;;4066459;29;20044;-86
2020/12/08 06:42:19;;;;;;;0.30;0.30;;;6.40;94.70;;;;;;4095294;28;20504;-86
2020/12/08 06:44:22;;;;;;;0.20;0.20;;;6.40;94.80;;;;;;4068201;29;20058;-96
2020/12/08 06:46:23;;;;;;;0.63;0.45;;;6.40;94.70;;;;;;4104687;28;20043;-96
2020/12/08 06:48:24;;;;;;;0.60;0.40;;;6.40;94.60;;;;;;4104240;29;20514;-96
2020/12/08 06:50:28;;;;;;;0.20;0.20;;;6.40;94.60;;;;;;4102090;28;20547;-96
2020/12/08 06:52:30;;;;;;;0.55;0.40;;;6.40;94.60;;;;;;4087117;29;20079;-96
2020/12/08 06:54:31;;;;;;;0.30;0.25;;;6.40;94.60;;;;;;4102213;28;20059;-96
2020/12/08 06:56:33;;;;;;;0.10;0.10;;;6.40;94.60;;;;;;4102881;29;20047;-96
2020/12/08 06:58:44;;;;;;;0.17;0.17;;;6.40;94.80;;;;;;4068910;29;20068;-96
2020/12/08 07:00:45;;;;;;;0.22;0.22;;;6.40;94.60;;;;;;4070835;29;20111;-96
2020/12/08 07:02:51;;;;;;;0.20;0.20;;;6.30;94.50;;;;;;4101634;28;20656;-96
2020/12/08 07:04:52;;;;;;;0.38;0.38;;;6.40;94.40;;;;;;4084450;29;20055;-96
2020/12/08 07:06:58;;;;;;;0.20;0.20;;;6.30;94.40;;;;;;4104006;28;20118;-96
2020/12/08 07:08:59;;;;;;;0.20;0.20;;;6.30;94.60;;;;;;4104782;28;20055;-96
2020/12/08 07:11:00;;;;;;;0.20;0.20;;;6.30;94.40;;;;;;4105965;28;20143;-91
2020/12/08 07:13:14;;;;;;;0.30;0.30;;;6.40;94.40;;;;;;4107348;28;20059;-86
2020/12/08 07:15:25;;;;;;;0.40;0.40;;;6.40;94.30;;;;;;4108612;28;20057;-96
2020/12/08 07:17:30;;;;;;;0.75;0.50;;;6.40;94.20;;;;;;4108533;28;20111;-92
2020/12/08 07:19:32;;;;;;;0.68;0.68;;;6.40;94.20;;;;;;4118352;28;20063;-94
2020/12/08 07:21:34;;;;;;;0.50;0.50;;;6.30;94.40;;;;;;4120292;28;20055;-96
2020/12/08 07:23:43;;;;;;;4.13;1.00;;;6.20;94.40;;;;;;4119642;28;20074;-94
2020/12/08 07:25:45;;;;;;;0.30;0.30;;;6.20;94.70;;;;;;4113894;29;20054;-93
2020/12/08 07:27:50;;;;;;;0.45;0.30;;;6.10;94.60;;;;;;4105211;28;20047;-96
2020/12/08 07:29:51;;;;;;;0.10;0.10;;;6.10;95.00;;;;;;4102545;29;20113;-96
2020/12/08 07:31:53;;;;;;;0.25;0.25;;;6.00;95.10;;;;;;4101598;28;20232;-96
2020/12/08 07:33:54;;;;;;;0.20;0.20;;;6.00;95.40;;;;;;4101911;28;20079;-93
2020/12/08 07:35:56;;;;;;;0.20;0.20;;;5.90;95.40;;;;;;4086508;29;20062;-96
2020/12/08 07:37:58;;;;;;;0.28;0.28;;;5.80;95.70;;;;;;4102465;28;20551;-96
2020/12/08 07:40:07;;;;;;;0.10;0.10;;;5.80;96.00;;;;;;4086573;29;20066;-96
2020/12/08 07:42:08;;;;;;;0.28;0.28;;;5.70;96.30;;;;;;4087352;29;20067;-96
2020/12/08 07:44:13;;;;;;;0.20;0.20;;;5.80;96.10;;;;;;4108767;29;20051;-96
2020/12/08 07:46:23;;;;;;;0.22;0.22;;;5.80;96.10;;;;;;4097670;29;20130;-86
2020/12/08 07:48:25;;;;;;;0.70;0.70;;;5.70;96.50;;;;;;4102854;28;20075;-92
2020/12/08 07:50:30;;;;;;;0.32;0.32;;;5.70;96.40;;;;;;4078310;29;20671;-96
2020/12/08 07:52:32;;;;;;;0.10;0.10;;;5.70;96.40;;;;;;4102075;28;20047;-94
2020/12/08 07:54:34;;;;;;;0.38;0.38;;;5.60;96.60;;;;;;4089020;29;20052;-95
2020/12/08 07:56:36;;;;;;;0.68;0.68;;;5.70;96.40;;;;;;4087088;29;20061;-96
2020/12/08 07:58:37;;;;;;;1.65;0.22;;;5.70;96.50;;;;;;4102153;28;20047;-96
2020/12/08 08:00:39;;;;;;;0.43;0.43;;;5.70;96.40;;;;;;4102386;28;20123;-96
2020/12/08 08:02:41;;;;;;;0.20;0.20;;;5.70;96.30;;;;;;4067050;29;20052;-91
2020/12/08 08:04:43;;;;;;;0.50;0.50;;;5.80;96.40;;;;;;4100614;28;20138;-96
2020/12/08 08:06:44;;;;;;;0.50;0.50;;;5.80;96.00;;;;;;4086095;29;20175;-96
2020/12/08 08:08:46;;;;;;;0.57;0.50;;;5.90;96.00;;;;;;4097420;28;20534;-96
2020/12/08 08:10:49;;;;;;;0.47;0.47;;;5.90;95.90;;;;;;4086306;29;20130;-94
2020/12/08 08:12:50;;;;;;;1.65;0.30;;;6.00;95.70;;;;;;4099881;29;20051;-92
2020/12/08 08:14:51;;;;;;;0.65;0.57;;;6.00;95.80;;;;;;4085084;29;20044;-91
2020/12/08 08:16:53;;;;;;;0.40;0.28;;;6.00;95.40;;;;;;4085345;29;20055;-96
2020/12/08 08:18:54;;;;;;;0.50;0.50;;;6.10;95.30;;;;;;4101312;28;20527;-92
2020/12/08 08:20:55;;;;;;;0.10;0.10;;;6.10;95.20;;;;;;4101571;29;20426;-96
2020/12/08 08:22:57;;;;;;;0.10;0.10;;;6.20;94.90;;;;;;4100920;28;20093;-96
2020/12/08 08:24:58;;;;;;;0.30;0.20;;;6.20;94.90;;;;;;4100547;28;20589;-96
2020/12/08 08:27:00;;;;;;;0.20;0.20;;;6.20;94.80;;;;;;4102887;28;20134;-94
2020/12/08 08:29:01;;;;;;;2.10;0.35;;;6.30;94.60;;;;;;4099998;28;20066;-96
2020/12/08 08:31:02;;;;;;;0.20;0.17;;;6.30;94.50;;;;;;4085189;29;20500;-92
2020/12/08 08:33:03;;;;;;;0.17;0.17;;;6.40;94.60;;;;;;4084327;29;20134;-94
2020/12/08 08:35:05;;;;;;;0.43;0.43;;;6.40;94.50;;;;;;4100784;28;20047;-94
2020/12/08 08:37:06;;;;;;;1.02;0.22;;;6.50;94.50;;;;;;4070592;29;20052;-94
2020/12/08 08:39:07;;;;;;;0.32;0.32;;;6.50;94.20;;;;;;4102662;28;20058;-94
2020/12/08 08:41:08;;;;;;;0.35;0.35;;;6.50;94.10;;;;;;4106553;28;20143;-89
2020/12/08 08:43:10;;;;;;;0.73;0.52;;;6.60;94.20;;;;;;4088689;29;20062;-95
2020/12/08 08:45:12;;;;;;;0.28;0.25;;;6.70;94.00;;;;;;4101391;29;20133;-92
2020/12/08 08:47:13;;;;;;;0.55;0.40;;;6.70;94.10;;;;;;4101776;28;20134;-94
2020/12/08 08:49:15;;;;;;;1.60;0.82;;;6.80;94.00;;;;;;4109840;29;20031;-88
2020/12/08 08:51:16;;;;;;;0.40;0.40;;;6.80;93.80;;;;;;4119752;28;20035;-83
2020/12/08 08:53:17;;;;;;;0.52;0.43;;;6.80;93.70;;;;;;4098083;29;20047;-90
2020/12/08 08:55:18;;;;;;;0.45;0.45;;;6.80;93.80;;;;;;4113902;28;20118;-90
2020/12/08 08:57:20;;;;;;;0.95;0.52;;;6.90;93.70;;;;;;4085341;29;20066;-90
2020/12/08 08:59:21;;;;;;;0.60;0.60;;;6.90;93.70;;;;;;4099757;28;20047;-89
2020/12/08 09:01:22;;;;;;;0.30;0.30;;;7.00;93.80;;;;;;4100071;29;20055;-91
2020/12/08 09:03:23;;;;;;;0.38;0.30;;;7.00;93.60;;;;;;4083684;29;20047;-91
2020/12/08 09:05:25;;;;;;;0.20;0.20;;;7.10;93.60;;;;;;4100486;28;20047;-91
2020/12/08 09:07:29;;;;;;;0.50;0.50;;;7.20;93.80;;;;;;4085323;29;20036;-88
2020/12/08 09:09:30;;;;;;;0.20;0.20;;;7.30;93.80;;;;;;4085696;29;20075;-91
2020/12/08 09:11:31;;;;;;;0.50;0.50;;;7.30;93.50;;;;;;4077685;29;20066;-88
2020/12/08 09:13:34;;;;;;;0.20;0.20;;;7.40;93.40;;;;;;4096573;28;20055;-84
2020/12/08 09:15:35;;;;;;;0.43;0.43;;;7.40;93.00;;;;;;4070243;29;20564;-88
2020/12/08 09:17:38;;;;;;;1.60;0.40;;;7.50;93.00;;;;;;4093900;29;20118;-88
2020/12/08 09:19:40;;;;;;;0.65;0.63;;;7.50;92.80;;;;;;4084229;29;20062;-88
2020/12/08 09:21:41;;;;;;;0.40;0.40;;;7.50;92.50;;;;;;4099784;28;20055;-90
2020/12/08 09:23:42;;;;;;;0.28;0.28;;;7.50;92.50;;;;;;4075973;29;20052;-85
2020/12/08 09:25:43;;;;;;;0.40;0.40;;;7.60;92.40;;;;;;4073389;29;20083;-90
2020/12/08 09:27:45;;;;;;;0.40;0.40;;;7.60;92.50;;;;;;4068768;29;20048;-86
2020/12/08 09:29:46;;;;;;;0.20;0.20;;;7.70;92.90;;;;;;4088744;29;20835;-89
2020/12/08 09:31:47;;;;;;;0.20;0.20;;;7.80;92.30;;;;;;4102059;28;20055;-87
2020/12/08 09:33:51;;;;;;;1.02;0.50;;;7.80;92.40;;;;;;4084519;29;20526;-90
2020/12/08 09:35:52;;;;;;;1.33;1.23;;;7.80;92.60;;;;;;4095963;29;20051;-89
2020/12/08 09:37:54;;;;;;;0.20;0.20;;;7.90;92.10;;;;;;4081202;29;20051;-89
2020/12/08 09:39:55;;;;;;;1.67;0.50;;;8.00;92.20;;;;;;4098478;28;20546;-89
2020/12/08 09:41:57;;;;;;;0.47;0.32;;;8.10;92.00;;;;;;4095541;28;20086;-89
2020/12/08 09:43:58;;;;;;;0.30;0.28;;;8.10;92.00;;;;;;4078847;29;20098;-88
2020/12/08 09:45:59;;;;;;;0.93;0.30;;;8.20;92.00;;;;;;4097632;28;20065;-88
2020/12/08 09:48:00;;;;;;;0.55;0.55;;;8.20;91.90;;;;;;4095760;29;20412;-90
2020/12/08 09:50:04;;;;;;;0.20;0.20;;;8.30;92.00;;;;;;4093467;28;20512;-89
2020/12/08 09:52:05;;;;;;;1.02;0.80;;;8.40;91.40;;;;;;4054929;29;20052;-89
2020/12/08 09:54:06;;;;;;;0.68;0.68;;;8.40;91.00;;;;;;4100122;28;20282;-89
2020/12/08 09:56:08;;;;;;;0.40;0.40;;;8.50;91.10;;;;;;4067530;29;20051;-88
2020/12/08 09:58:09;;;;;;;0.40;0.20;;;8.60;91.40;;;;;;4098841;28;20055;-88
2020/12/08 10:00:10;;;;;;;3.47;0.40;;;8.70;91.40;;;;;;4099870;29;20578;-89
2020/12/08 10:02:12;;;;;;;0.40;0.40;;;8.70;90.30;;;;;;4099276;28;20047;-89
2020/12/08 10:04:13;;;;;;;0.25;0.25;;;8.70;90.20;;;;;;4099500;28;20043;-88
2020/12/08 10:06:17;;;;;;;0.60;0.60;;;8.70;90.90;;;;;;4099852;28;20513;-88
2020/12/08 10:08:18;;;;;;;1.88;1.67;;;8.80;90.60;;;;;;4083197;29;20086;-89
2020/12/08 10:10:19;;;;;;;0.65;0.28;;;8.90;90.60;;;;;;4099117;28;20047;-89
2020/12/08 10:12:21;;;;;;;0.20;0.20;;;9.00;90.30;;;;;;4100001;28;20047;-89
2020/12/08 10:14:22;;;;;;;0.55;0.55;;;9.00;89.80;;;;;;4099433;28;20566;-90
2020/12/08 10:16:24;;;;;;;0.20;0.20;;;9.10;89.50;;;;;;4083588;29;20067;-90
2020/12/08 10:18:25;;;;;;;1.23;0.95;;;9.10;89.70;;;;;;4065837;29;20080;-86
2020/12/08 10:20:42;;;;;;;0.35;0.32;;;9.20;90.00;;;;;;4085600;29;20496;-86
2020/12/08 10:22:43;;;;;;;0.20;0.20;;;9.20;88.70;;;;;;4099066;28;20098;-90
2020/12/08 10:24:44;;;;;;;0.50;0.43;;;9.30;89.70;;;;;;4099657;29;20438;-89
2020/12/08 10:26:46;;;;;;;0.28;0.28;;;9.40;88.60;;;;;;4067508;29;20143;-90
2020/12/08 10:28:48;;;;;;;0.93;0.70;;;9.40;88.50;;;;;;4099195;28;20114;-89
2020/12/08 10:30:49;;;;;;;0.30;0.30;;;9.40;89.40;;;;;;4099513;28;20061;-86
2020/12/08 10:32:50;;;;;;;0.85;0.57;;;9.40;86.30;;;;;;4083516;29;20047;-88
2020/12/08 10:34:52;;;;;;;0.40;0.22;;;9.50;86.70;;;;;;4099517;28;20423;-90
2020/12/08 10:36:53;;;;;;;0.20;0.20;;;9.40;87.30;;;;;;4083482;29;20114;-90
2020/12/08 10:38:55;;;;;;;0.50;0.40;;;9.30;88.60;;;;;;4083981;29;20427;-87
2020/12/08 10:40:56;;;;;;;0.20;0.20;;;9.40;87.50;;;;;;4099150;28;20065;-85
2020/12/08 10:42:57;;;;;;;0.80;0.63;;;9.50;87.80;;;;;;4099050;28;20052;-81
2020/12/08 10:45:13;;;;;;;;;;;9.50;88.60;;;;;;4080607;29;20059;-87